createdAt,value
2022-08-01T00:00:10.209Z,27.20
2022-08-01T00:00:21.964Z,27.20
2022-08-01T00:00:33.698Z,27.20
2022-08-01T00:00:45.431Z,27.20
2022-08-01T00:00:57.179Z,27.20
2022-08-01T00:01:13.191Z,27.20
2022-08-01T00:01:24.926Z,27.20
2022-08-01T00:01:36.925Z,27.10
2022-08-01T00:01:48.758Z,27.20
2022-08-01T00:02:00.577Z,27.10
2022-08-01T00:02:12.403Z,27.10
2022-08-01T00:02:24.353Z,27.10
2022-08-01T00:02:39.519Z,27.10
2022-08-01T00:02:51.419Z,27.10
2022-08-01T00:03:03.230Z,27.10
2022-08-01T00:03:14.981Z,27.10
2022-08-01T00:03:26.695Z,27.10
2022-08-01T00:03:38.483Z,27.10
2022-08-01T00:03:50.242Z,27.10
2022-08-01T00:04:02.106Z,27.10
2022-08-01T00:04:13.857Z,27.10
2022-08-01T00:04:25.615Z,27.10
2022-08-01T00:04:37.358Z,27.10
2022-08-01T00:04:49.124Z,27.10
2022-08-01T00:05:01.171Z,27.10
2022-08-01T00:05:13.585Z,27.10
2022-08-01T00:05:25.330Z,27.10
2022-08-01T00:05:37.092Z,27.10
2022-08-01T00:05:48.855Z,27.10
2022-08-01T00:06:00.618Z,27.10
2022-08-01T00:06:12.320Z,27.10
2022-08-01T00:06:24.056Z,27.00
2022-08-01T00:06:35.783Z,27.00
2022-08-01T00:06:47.488Z,27.10
2022-08-01T00:06:59.194Z,27.10
2022-08-01T00:07:10.922Z,27.00
2022-08-01T00:07:22.687Z,27.00
2022-08-01T00:07:35.124Z,27.10
2022-08-01T00:07:46.899Z,27.10
2022-08-01T00:07:58.625Z,27.10
2022-08-01T00:08:10.343Z,27.10
2022-08-01T00:08:22.106Z,27.10
2022-08-01T00:08:33.827Z,27.10
2022-08-01T00:08:45.542Z,27.10
2022-08-01T00:08:57.311Z,27.10
2022-08-01T00:09:09.008Z,27.10
2022-08-01T00:09:23.732Z,27.00
2022-08-01T00:09:36.152Z,27.00
2022-08-01T00:09:47.890Z,27.00
2022-08-01T00:09:59.682Z,27.00
2022-08-01T00:10:13.387Z,27.00
2022-08-01T00:10:25.292Z,27.00
2022-08-01T00:10:37.023Z,27.00
2022-08-01T00:10:49.684Z,27.00
2022-08-01T00:11:02.895Z,27.00
2022-08-01T00:11:15.164Z,27.00
2022-08-01T00:11:26.865Z,27.00
2022-08-01T00:11:38.629Z,27.00
2022-08-01T00:11:56.296Z,27.00
2022-08-01T00:12:12.009Z,27.00
2022-08-01T00:12:23.796Z,27.00
2022-08-01T00:12:35.548Z,27.00
2022-08-01T00:12:47.302Z,27.00
2022-08-01T00:12:58.997Z,27.00
2022-08-01T00:13:10.725Z,27.00
2022-08-01T00:13:22.533Z,27.00
2022-08-01T00:13:34.266Z,27.00
2022-08-01T00:13:46.034Z,27.00
2022-08-01T00:13:57.740Z,27.00
2022-08-01T00:14:10.649Z,27.00
2022-08-01T00:14:22.362Z,26.90
2022-08-01T00:14:44.519Z,27.00
2022-08-01T00:14:56.226Z,26.90
2022-08-01T00:15:08.999Z,26.90
2022-08-01T00:15:20.739Z,26.90
2022-08-01T00:15:33.311Z,26.90
2022-08-01T00:15:54.086Z,26.90
2022-08-01T00:16:06.234Z,26.90
2022-08-01T00:16:18.120Z,26.90
2022-08-01T00:16:29.859Z,26.90
2022-08-01T00:16:41.599Z,26.90
2022-08-01T00:16:53.498Z,26.90
2022-08-01T00:17:07.422Z,26.90
2022-08-01T00:17:19.434Z,26.90
2022-08-01T00:17:31.157Z,26.90
2022-08-01T00:17:43.295Z,26.90
2022-08-01T00:17:55.038Z,26.90
2022-08-01T00:18:06.783Z,26.90
2022-08-01T00:18:18.486Z,26.90
2022-08-01T00:18:30.270Z,26.90
2022-08-01T00:18:42.038Z,26.90
2022-08-01T00:18:53.831Z,26.80
2022-08-01T00:19:05.842Z,26.80
2022-08-01T00:19:17.775Z,26.80
2022-08-01T00:19:29.533Z,26.80
2022-08-01T00:19:41.299Z,26.80
2022-08-01T00:19:53.039Z,26.80
2022-08-01T00:20:07.729Z,26.80
2022-08-01T00:20:19.462Z,26.80
2022-08-01T00:20:31.202Z,26.80
2022-08-01T00:20:42.976Z,26.80
2022-08-01T00:20:54.712Z,26.80
2022-08-01T00:21:06.442Z,26.80
2022-08-01T00:21:18.782Z,26.80
2022-08-01T00:21:30.525Z,26.80
2022-08-01T00:21:52.124Z,26.80
2022-08-01T00:22:04.596Z,26.80
2022-08-01T00:22:16.561Z,26.90
2022-08-01T00:22:28.276Z,26.80
2022-08-01T00:22:40.075Z,26.80
2022-08-01T00:22:51.832Z,26.80
2022-08-01T00:23:04.172Z,26.80
2022-08-01T00:23:15.908Z,26.80
2022-08-01T00:23:27.642Z,26.80
2022-08-01T00:23:39.446Z,26.80
2022-08-01T00:23:51.155Z,26.80
2022-08-01T00:24:02.837Z,26.80
2022-08-01T00:24:15.705Z,26.70
2022-08-01T00:24:29.626Z,26.80
2022-08-01T00:24:41.367Z,26.80
2022-08-01T00:24:53.109Z,26.70
2022-08-01T00:25:05.244Z,26.80
2022-08-01T00:25:16.970Z,26.70
2022-08-01T00:25:34.228Z,26.70
2022-08-01T00:25:46.406Z,26.80
2022-08-01T00:25:58.173Z,26.70
2022-08-01T00:26:09.961Z,26.70
2022-08-01T00:26:21.665Z,26.70
2022-08-01T00:26:33.379Z,26.70
2022-08-01T00:26:45.109Z,26.70
2022-08-01T00:26:56.855Z,26.70
2022-08-01T00:27:08.604Z,26.70
2022-08-01T00:27:20.295Z,26.70
2022-08-01T00:27:32.618Z,26.70
2022-08-01T00:27:49.258Z,26.70
2022-08-01T00:28:02.487Z,26.70
2022-08-01T00:28:17.198Z,26.70
2022-08-01T00:28:28.911Z,26.70
2022-08-01T00:28:41.174Z,26.70
2022-08-01T00:28:52.863Z,26.70
2022-08-01T00:29:04.635Z,26.70
2022-08-01T00:30:01.025Z,26.70
2022-08-01T00:30:10.841Z,26.70
2022-08-01T00:30:25.907Z,26.70
2022-08-01T00:30:37.645Z,26.70
2022-08-01T00:30:49.430Z,26.70
2022-08-01T00:31:01.402Z,26.60
2022-08-01T00:31:13.140Z,26.60
2022-08-01T00:31:24.835Z,26.60
2022-08-01T00:31:36.535Z,26.60
2022-08-01T00:31:48.290Z,26.60
2022-08-01T00:32:00.001Z,26.60
2022-08-01T00:32:11.764Z,26.60
2022-08-01T00:32:23.504Z,26.60
2022-08-01T00:32:36.014Z,26.60
2022-08-01T00:32:47.775Z,26.60
2022-08-01T00:32:59.674Z,26.60
2022-08-01T00:33:11.521Z,26.60
2022-08-01T00:33:23.238Z,26.60
2022-08-01T00:33:34.944Z,26.60
2022-08-01T00:33:46.677Z,26.60
2022-08-01T00:33:58.383Z,26.60
2022-08-01T00:34:10.124Z,26.60
2022-08-01T00:34:21.846Z,26.60
2022-08-01T00:34:33.726Z,26.60
2022-08-01T00:34:45.626Z,26.60
2022-08-01T00:34:57.344Z,26.60
2022-08-01T00:35:09.334Z,26.60
2022-08-01T00:35:21.045Z,26.60
2022-08-01T00:35:32.808Z,26.60
2022-08-01T00:35:44.687Z,26.60
2022-08-01T00:35:56.892Z,26.60
2022-08-01T00:36:08.693Z,26.60
2022-08-01T00:36:20.450Z,26.60
2022-08-01T00:36:32.154Z,26.60
2022-08-01T00:36:43.908Z,26.60
2022-08-01T00:36:55.615Z,26.60
2022-08-01T00:37:07.298Z,26.60
2022-08-01T00:37:19.020Z,26.60
2022-08-01T00:37:30.713Z,26.60
2022-08-01T00:37:42.507Z,26.60
2022-08-01T00:37:54.506Z,26.60
2022-08-01T00:38:06.255Z,26.60
2022-08-01T00:38:18.005Z,26.60
2022-08-01T00:38:29.784Z,26.60
2022-08-01T00:38:41.513Z,26.60
2022-08-01T00:38:53.270Z,26.60
2022-08-01T00:39:05.111Z,26.60
2022-08-01T00:39:16.843Z,26.60
2022-08-01T00:39:28.611Z,26.60
2022-08-01T00:39:40.351Z,26.60
2022-08-01T00:39:52.069Z,26.60
2022-08-01T00:40:04.130Z,26.60
2022-08-01T00:40:15.914Z,26.60
2022-08-01T00:40:27.656Z,26.60
2022-08-01T00:40:39.455Z,26.60
2022-08-01T00:40:51.338Z,26.60
2022-08-01T00:41:03.064Z,26.60
2022-08-01T00:41:14.805Z,26.70
2022-08-01T00:41:26.555Z,26.70
2022-08-01T00:41:38.285Z,26.70
2022-08-01T00:41:49.986Z,26.70
2022-08-01T00:42:12.065Z,26.70
2022-08-01T00:42:23.786Z,26.60
2022-08-01T00:42:38.117Z,26.60
2022-08-01T00:42:53.322Z,26.60
2022-08-01T00:43:05.056Z,26.60
2022-08-01T00:43:16.913Z,26.60
2022-08-01T00:43:29.234Z,26.60
2022-08-01T00:43:41.012Z,26.60
2022-08-01T00:43:52.842Z,26.60
2022-08-01T00:44:07.663Z,26.60
2022-08-01T00:44:19.408Z,26.60
2022-08-01T00:44:31.114Z,26.60
2022-08-01T00:44:42.839Z,26.60
2022-08-01T00:44:54.541Z,26.60
2022-08-01T00:45:06.872Z,26.60
2022-08-01T00:45:18.551Z,26.60
2022-08-01T00:45:30.294Z,26.60
2022-08-01T00:45:42.273Z,26.60
2022-08-01T00:45:53.949Z,26.60
2022-08-01T00:46:05.743Z,26.60
2022-08-01T00:46:17.481Z,26.60
2022-08-01T00:46:29.193Z,26.60
2022-08-01T00:46:40.923Z,26.60
2022-08-01T00:46:52.730Z,26.60
2022-08-01T00:47:04.586Z,26.60
2022-08-01T00:47:16.345Z,26.60
2022-08-01T00:47:28.062Z,26.60
2022-08-01T00:47:39.884Z,26.60
2022-08-01T00:47:55.292Z,26.60
2022-08-01T00:48:07.389Z,26.60
2022-08-01T00:48:19.109Z,26.60
2022-08-01T00:48:30.814Z,26.60
2022-08-01T00:48:42.554Z,26.60
2022-08-01T00:48:55.994Z,26.50
2022-08-01T00:49:10.428Z,26.60
2022-08-01T00:49:23.067Z,26.50
2022-08-01T00:49:34.879Z,26.60
2022-08-01T00:49:46.711Z,26.50
2022-08-01T00:49:58.445Z,26.50
2022-08-01T00:50:10.529Z,26.50
2022-08-01T00:50:22.284Z,26.60
2022-08-01T00:50:34.248Z,26.50
2022-08-01T00:50:46.072Z,26.60
2022-08-01T00:50:57.983Z,26.60
2022-08-01T00:51:09.910Z,26.60
2022-08-01T00:51:22.078Z,26.60
2022-08-01T00:51:34.218Z,26.60
2022-08-01T00:51:46.214Z,26.60
2022-08-01T00:51:59.325Z,26.60
2022-08-01T00:52:11.121Z,26.60
2022-08-01T00:52:22.851Z,26.60
2022-08-01T00:52:34.774Z,26.60
2022-08-01T00:52:51.444Z,26.60
2022-08-01T00:53:03.523Z,26.60
2022-08-01T00:53:18.675Z,26.60
2022-08-01T00:53:50.764Z,26.60
2022-08-01T00:54:02.756Z,26.60
2022-08-01T00:54:17.458Z,26.60
2022-08-01T00:54:29.188Z,26.60
2022-08-01T00:54:40.974Z,26.60
2022-08-01T00:54:52.732Z,26.60
2022-08-01T00:55:04.970Z,26.60
2022-08-01T00:55:16.741Z,26.60
2022-08-01T00:55:28.944Z,26.60
2022-08-01T00:55:40.659Z,26.60
2022-08-01T00:55:52.388Z,26.60
2022-08-01T00:56:04.330Z,26.60
2022-08-01T00:56:16.097Z,26.60
2022-08-01T00:56:28.048Z,26.70
2022-08-01T00:56:39.760Z,26.70
2022-08-01T00:56:51.494Z,26.70
2022-08-01T00:57:03.333Z,26.70
2022-08-01T00:57:15.284Z,26.70
2022-08-01T00:58:01.747Z,26.70
2022-08-01T00:58:05.831Z,26.70
2022-08-01T00:58:18.318Z,26.70
2022-08-01T00:58:32.079Z,26.70
2022-08-01T00:58:46.754Z,26.70
2022-08-01T00:58:59.097Z,26.70
2022-08-01T00:59:11.051Z,26.70
2022-08-01T00:59:23.197Z,26.70
2022-08-01T00:59:34.982Z,26.70
2022-08-01T00:59:46.702Z,26.70
2022-08-01T00:59:59.748Z,26.70
2022-08-01T01:00:12.631Z,26.70
2022-08-01T01:00:27.522Z,26.60
2022-08-01T01:00:52.994Z,26.60
2022-08-01T01:01:05.908Z,26.60
2022-08-01T01:01:21.971Z,26.60
2022-08-01T01:01:39.753Z,26.60
2022-08-01T01:01:51.998Z,26.60
2022-08-01T01:02:04.103Z,26.60
2022-08-01T01:02:26.262Z,26.60
2022-08-01T01:02:38.000Z,26.60
2022-08-01T01:02:49.729Z,26.60
2022-08-01T01:03:01.469Z,26.60
2022-08-01T01:03:13.214Z,26.60
2022-08-01T01:03:57.904Z,26.60
2022-08-01T01:03:59.180Z,26.60
2022-08-01T01:04:11.604Z,26.60
2022-08-01T01:04:23.433Z,26.60
2022-08-01T01:04:35.147Z,26.60
2022-08-01T01:04:46.851Z,26.60
2022-08-01T01:04:58.759Z,26.60
2022-08-01T01:05:11.026Z,26.60
2022-08-01T01:05:22.763Z,26.60
2022-08-01T01:05:37.691Z,26.60
2022-08-01T01:06:01.584Z,26.60
2022-08-01T01:06:29.297Z,26.60
2022-08-01T01:07:04.334Z,26.50
2022-08-01T01:07:59.407Z,26.60
2022-08-01T01:08:17.650Z,26.50
2022-08-01T01:08:33.679Z,26.60
2022-08-01T01:08:59.618Z,26.60
2022-08-01T01:09:20.523Z,26.50
2022-08-01T01:09:40.799Z,26.50
2022-08-01T01:10:20.965Z,26.50
2022-08-01T01:10:44.820Z,26.50
2022-08-01T01:11:04.546Z,26.60
2022-08-01T01:11:26.525Z,26.50
2022-08-01T01:12:08.491Z,26.50
2022-08-01T01:12:37.399Z,26.50
2022-08-01T01:12:57.178Z,26.60
2022-08-01T01:13:26.715Z,26.60
2022-08-01T01:13:50.747Z,26.50
2022-08-01T01:14:08.390Z,26.50
2022-08-01T01:14:47.221Z,26.50
2022-08-01T01:15:41.126Z,26.50
2022-08-01T01:15:59.090Z,26.50
2022-08-01T01:16:13.428Z,26.50
2022-08-01T01:16:25.156Z,26.50
2022-08-01T01:16:36.897Z,26.50
2022-08-01T01:16:48.632Z,26.50
2022-08-01T01:17:01.245Z,26.50
2022-08-01T01:17:15.653Z,26.50
2022-08-01T01:17:51.144Z,26.50
2022-08-01T01:18:24.570Z,26.50
2022-08-01T01:18:47.698Z,26.50
2022-08-01T01:19:02.097Z,26.50
2022-08-01T01:19:16.927Z,26.50
2022-08-01T01:19:30.487Z,26.50
2022-08-01T01:19:48.674Z,26.50
2022-08-01T01:20:00.878Z,26.50
2022-08-01T01:20:13.835Z,26.50
2022-08-01T01:20:30.421Z,26.50
2022-08-01T01:20:45.906Z,26.50
2022-08-01T01:21:18.126Z,26.50
2022-08-01T01:21:32.489Z,26.50
2022-08-01T01:22:00.073Z,26.50
2022-08-01T01:22:36.406Z,26.50
2022-08-01T01:22:51.052Z,26.50
2022-08-01T01:23:36.365Z,26.50
2022-08-01T01:23:51.051Z,26.40
2022-08-01T01:24:11.910Z,26.40
2022-08-01T01:24:48.333Z,26.50
2022-08-01T01:25:46.053Z,26.50
2022-08-01T01:26:24.525Z,26.40
2022-08-01T01:26:41.557Z,26.50
2022-08-01T01:27:02.058Z,26.40
2022-08-01T01:27:25.013Z,26.40
2022-08-01T01:27:42.756Z,26.50
2022-08-01T01:28:15.601Z,26.50
2022-08-01T01:28:58.812Z,26.40
2022-08-01T01:29:13.576Z,26.40
2022-08-01T01:29:31.965Z,26.40
2022-08-01T01:30:03.955Z,26.40
2022-08-01T01:30:15.716Z,26.40
2022-08-01T01:30:27.490Z,26.40
2022-08-01T01:30:39.687Z,26.40
2022-08-01T01:30:52.489Z,26.40
2022-08-01T01:31:04.476Z,26.40
2022-08-01T01:31:16.225Z,26.40
2022-08-01T01:31:27.980Z,26.40
2022-08-01T01:32:04.086Z,26.40
2022-08-01T01:32:19.798Z,26.40
2022-08-01T01:32:42.812Z,26.40
2022-08-01T01:32:54.589Z,26.40
2022-08-01T01:33:07.208Z,26.30
2022-08-01T01:33:18.966Z,26.40
2022-08-01T01:33:32.804Z,26.40
2022-08-01T01:33:47.168Z,26.30
2022-08-01T01:33:59.429Z,26.30
2022-08-01T01:34:12.925Z,26.40
2022-08-01T01:34:24.677Z,26.30
2022-08-01T01:34:38.198Z,26.30
2022-08-01T01:34:50.789Z,26.40
2022-08-01T01:35:11.830Z,26.40
2022-08-01T01:35:28.083Z,26.30
2022-08-01T01:35:43.050Z,26.30
2022-08-01T01:36:00.813Z,26.30
2022-08-01T01:36:12.646Z,26.30
2022-08-01T01:36:24.384Z,26.40
2022-08-01T01:36:36.191Z,26.30
2022-08-01T01:36:49.006Z,26.30
2022-08-01T01:37:00.762Z,26.30
2022-08-01T01:37:17.358Z,26.40
2022-08-01T01:37:29.128Z,26.40
2022-08-01T01:37:40.868Z,26.30
2022-08-01T01:37:57.149Z,26.30
2022-08-01T01:38:11.864Z,26.30
2022-08-01T01:38:25.520Z,26.40
2022-08-01T01:38:44.279Z,26.30
2022-08-01T01:38:56.091Z,26.30
2022-08-01T01:39:08.126Z,26.30
2022-08-01T01:39:19.928Z,26.30
2022-08-01T01:39:31.642Z,26.30
2022-08-01T01:39:45.325Z,26.30
2022-08-01T01:40:06.561Z,26.30
2022-08-01T01:40:18.297Z,26.30
2022-08-01T01:40:30.037Z,26.30
2022-08-01T01:40:41.753Z,26.30
2022-08-01T01:40:53.798Z,26.30
2022-08-01T01:41:05.557Z,26.30
2022-08-01T01:41:18.117Z,26.30
2022-08-01T01:41:29.851Z,26.30
2022-08-01T01:41:41.573Z,26.30
2022-08-01T01:41:53.410Z,26.30
2022-08-01T01:42:06.514Z,26.30
2022-08-01T01:42:18.771Z,26.30
2022-08-01T01:42:30.688Z,26.30
2022-08-01T01:42:42.834Z,26.30
2022-08-01T01:42:55.069Z,26.30
2022-08-01T01:43:09.294Z,26.30
2022-08-01T01:43:21.027Z,26.30
2022-08-01T01:43:40.739Z,26.30
2022-08-01T01:43:52.494Z,26.30
2022-08-01T01:44:04.645Z,26.30
2022-08-01T01:44:16.445Z,26.30
2022-08-01T01:44:28.397Z,26.30
2022-08-01T01:44:40.403Z,26.30
2022-08-01T01:44:52.207Z,26.20
2022-08-01T01:45:04.618Z,26.30
2022-08-01T01:45:16.349Z,26.20
2022-08-01T01:45:28.192Z,26.20
2022-08-01T01:45:40.338Z,26.20
2022-08-01T01:45:52.865Z,26.20
2022-08-01T01:46:04.914Z,26.20
2022-08-01T01:46:18.035Z,26.20
2022-08-01T01:46:29.752Z,26.20
2022-08-01T01:46:41.507Z,26.20
2022-08-01T01:46:53.251Z,26.20
2022-08-01T01:47:05.668Z,26.30
2022-08-01T01:47:17.819Z,26.20
2022-08-01T01:47:29.581Z,26.20
2022-08-01T01:47:41.677Z,26.20
2022-08-01T01:47:53.631Z,26.20
2022-08-01T01:48:05.648Z,26.20
2022-08-01T01:48:18.903Z,26.30
2022-08-01T01:48:30.663Z,26.20
2022-08-01T01:48:42.421Z,26.30
2022-08-01T01:48:55.153Z,26.20
2022-08-01T01:49:07.044Z,26.20
2022-08-01T01:49:21.718Z,26.20
2022-08-01T01:49:33.582Z,26.20
2022-08-01T01:49:47.128Z,26.20
2022-08-01T01:49:58.858Z,26.20
2022-08-01T01:50:10.633Z,26.20
2022-08-01T01:50:58.679Z,26.20
2022-08-01T01:51:10.391Z,26.20
2022-08-01T01:51:22.638Z,26.20
2022-08-01T01:51:34.354Z,26.20
2022-08-01T01:51:57.442Z,26.20
2022-08-01T01:52:16.314Z,26.20
2022-08-01T01:52:28.012Z,26.20
2022-08-01T01:52:40.932Z,26.20
2022-08-01T01:52:52.815Z,26.20
2022-08-01T01:53:05.112Z,26.20
2022-08-01T01:53:18.540Z,26.20
2022-08-01T01:53:30.235Z,26.20
2022-08-01T01:53:42.024Z,26.20
2022-08-01T01:53:55.038Z,26.20
2022-08-01T01:54:06.776Z,26.20
2022-08-01T01:54:18.510Z,26.20
2022-08-01T01:54:33.330Z,26.20
2022-08-01T01:54:49.711Z,26.20
2022-08-01T01:55:01.419Z,26.20
2022-08-01T01:55:13.144Z,26.20
2022-08-01T01:55:25.124Z,26.20
2022-08-01T01:55:49.132Z,26.20
2022-08-01T01:56:02.013Z,26.20
2022-08-01T01:56:13.768Z,26.10
2022-08-01T01:56:25.505Z,26.20
2022-08-01T01:56:49.445Z,26.20
2022-08-01T01:57:01.912Z,26.20
2022-08-01T01:57:13.663Z,26.20
2022-08-01T01:57:25.346Z,26.20
2022-08-01T01:57:38.849Z,26.20
2022-08-01T01:57:50.594Z,26.20
2022-08-01T01:58:02.339Z,26.20
2022-08-01T01:58:14.397Z,26.10
2022-08-01T01:58:26.163Z,26.20
2022-08-01T01:58:39.806Z,26.10
2022-08-01T01:58:54.660Z,26.10
2022-08-01T01:59:06.428Z,26.10
2022-08-01T01:59:25.726Z,26.10
2022-08-01T01:59:38.197Z,26.10
2022-08-01T01:59:49.968Z,26.10
2022-08-01T02:00:01.706Z,26.10
2022-08-01T02:00:14.162Z,26.10
2022-08-01T02:00:26.078Z,26.10
2022-08-01T02:00:37.801Z,26.10
2022-08-01T02:00:50.434Z,26.10
2022-08-01T02:01:03.688Z,26.10
2022-08-01T02:01:15.540Z,26.10
2022-08-01T02:02:04.879Z,26.10
2022-08-01T02:02:18.082Z,26.10
2022-08-01T02:02:29.862Z,26.10
2022-08-01T02:02:41.843Z,26.10
2022-08-01T02:02:54.110Z,26.10
2022-08-01T02:03:06.505Z,26.10
2022-08-01T02:03:18.729Z,26.10
2022-08-01T02:03:31.015Z,26.10
2022-08-01T02:03:43.982Z,26.10
2022-08-01T02:03:57.782Z,26.10
2022-08-01T02:04:09.486Z,26.10
2022-08-01T02:04:21.343Z,26.10
2022-08-01T02:04:33.636Z,26.10
2022-08-01T02:04:46.468Z,26.10
2022-08-01T02:04:59.089Z,26.10
2022-08-01T02:05:11.798Z,26.10
2022-08-01T02:05:23.598Z,26.10
2022-08-01T02:05:36.138Z,26.10
2022-08-01T02:05:47.846Z,26.10
2022-08-01T02:05:59.574Z,26.10
2022-08-01T02:06:13.209Z,26.10
2022-08-01T02:06:25.525Z,26.10
2022-08-01T02:06:37.222Z,26.10
2022-08-01T02:06:49.002Z,26.10
2022-08-01T02:07:01.730Z,26.10
2022-08-01T02:07:22.175Z,26.10
2022-08-01T02:07:33.970Z,26.10
2022-08-01T02:07:45.712Z,26.10
2022-08-01T02:08:00.237Z,26.10
2022-08-01T02:08:12.627Z,26.10
2022-08-01T02:08:24.329Z,26.10
2022-08-01T02:08:36.029Z,26.10
2022-08-01T02:08:47.781Z,26.10
2022-08-01T02:08:59.480Z,26.10
2022-08-01T02:09:11.257Z,26.10
2022-08-01T02:09:23.298Z,26.10
2022-08-01T02:09:34.990Z,26.10
2022-08-01T02:09:46.710Z,26.10
2022-08-01T02:09:58.408Z,26.10
2022-08-01T02:10:10.249Z,26.10
2022-08-01T02:10:22.018Z,26.10
2022-08-01T02:10:40.519Z,26.10
2022-08-01T02:11:12.565Z,26.10
2022-08-01T02:11:24.308Z,26.10
2022-08-01T02:11:37.416Z,26.10
2022-08-01T02:12:11.647Z,26.10
2022-08-01T02:12:23.650Z,26.10
2022-08-01T02:12:37.409Z,26.10
2022-08-01T02:12:49.569Z,26.00
2022-08-01T02:13:04.069Z,26.10
2022-08-01T02:13:15.786Z,26.10
2022-08-01T02:13:29.683Z,26.10
2022-08-01T02:13:41.451Z,26.00
2022-08-01T02:14:00.281Z,26.10
2022-08-01T02:14:12.228Z,26.00
2022-08-01T02:14:24.089Z,26.00
2022-08-01T02:14:38.889Z,26.00
2022-08-01T02:14:51.123Z,26.00
2022-08-01T02:15:04.471Z,26.00
2022-08-01T02:15:16.258Z,26.00
2022-08-01T02:15:29.205Z,26.00
2022-08-01T02:15:59.894Z,26.00
2022-08-01T02:16:12.488Z,26.00
2022-08-01T02:16:25.866Z,26.00
2022-08-01T02:16:38.163Z,26.00
2022-08-01T02:16:50.476Z,26.00
2022-08-01T02:17:04.790Z,26.00
2022-08-01T02:17:17.604Z,26.00
2022-08-01T02:17:29.336Z,26.00
2022-08-01T02:17:42.998Z,26.00
2022-08-01T02:17:54.714Z,26.00
2022-08-01T02:18:06.839Z,26.00
2022-08-01T02:18:18.545Z,26.00
2022-08-01T02:18:35.617Z,26.00
2022-08-01T02:18:47.336Z,26.00
2022-08-01T02:18:59.050Z,26.00
2022-08-01T02:19:11.263Z,26.00
2022-08-01T02:19:23.050Z,26.00
2022-08-01T02:19:38.642Z,26.00
2022-08-01T02:19:50.692Z,26.00
2022-08-01T02:20:02.479Z,26.00
2022-08-01T02:20:14.737Z,26.00
2022-08-01T02:20:28.034Z,26.00
2022-08-01T02:20:39.746Z,26.00
2022-08-01T02:20:53.085Z,26.00
2022-08-01T02:21:06.443Z,26.00
2022-08-01T02:21:21.658Z,26.00
2022-08-01T02:21:39.939Z,26.00
2022-08-01T02:21:58.734Z,25.90
2022-08-01T02:22:23.434Z,25.90
2022-08-01T02:23:06.011Z,25.90
2022-08-01T02:23:17.708Z,25.90
2022-08-01T02:23:31.817Z,25.90
2022-08-01T02:23:43.645Z,25.90
2022-08-01T02:23:56.649Z,25.90
2022-08-01T02:24:15.387Z,25.90
2022-08-01T02:24:55.050Z,25.90
2022-08-01T02:25:28.303Z,25.90
2022-08-01T02:26:09.463Z,25.90
2022-08-01T02:26:20.107Z,25.90
2022-08-01T02:26:31.821Z,25.90
2022-08-01T02:26:45.532Z,25.90
2022-08-01T02:26:58.194Z,25.90
2022-08-01T02:27:13.194Z,25.90
2022-08-01T02:27:45.180Z,25.90
2022-08-01T02:28:09.083Z,25.80
2022-08-01T02:28:35.091Z,25.80
2022-08-01T02:28:48.936Z,25.80
2022-08-01T02:29:02.657Z,25.90
2022-08-01T02:29:18.836Z,25.80
2022-08-01T02:29:37.402Z,25.80
2022-08-01T02:30:06.595Z,25.90
2022-08-01T02:30:18.397Z,25.80
2022-08-01T02:30:34.874Z,25.80
2022-08-01T02:30:47.854Z,25.80
2022-08-01T02:31:07.854Z,25.80
2022-08-01T02:31:21.477Z,25.80
2022-08-01T02:31:33.484Z,25.80
2022-08-01T02:31:46.688Z,25.80
2022-08-01T02:31:58.423Z,25.80
2022-08-01T02:32:13.141Z,25.80
2022-08-01T02:32:27.112Z,25.80
2022-08-01T02:32:47.849Z,25.80
2022-08-01T02:33:03.004Z,25.80
2022-08-01T02:33:19.733Z,25.80
2022-08-01T02:33:38.940Z,25.80
2022-08-01T02:33:58.212Z,25.80
2022-08-01T02:34:10.955Z,25.80
2022-08-01T02:34:22.693Z,25.80
2022-08-01T02:34:34.412Z,25.80
2022-08-01T02:34:47.711Z,25.80
2022-08-01T02:35:01.404Z,25.70
2022-08-01T02:35:15.717Z,25.70
2022-08-01T02:35:29.307Z,25.70
2022-08-01T02:36:30.490Z,25.70
2022-08-01T02:36:30.554Z,25.70
2022-08-01T02:36:44.838Z,25.70
2022-08-01T02:36:56.613Z,25.70
2022-08-01T02:37:08.389Z,25.70
2022-08-01T02:37:20.137Z,25.70
2022-08-01T02:37:32.920Z,25.70
2022-08-01T02:37:45.236Z,25.70
2022-08-01T02:37:59.763Z,25.60
2022-08-01T02:38:12.063Z,25.60
2022-08-01T02:38:25.807Z,25.60
2022-08-01T02:38:41.449Z,25.60
2022-08-01T02:38:53.170Z,25.60
2022-08-01T02:39:09.110Z,25.60
2022-08-01T02:39:20.841Z,25.60
2022-08-01T02:39:32.616Z,25.60
2022-08-01T02:39:44.290Z,25.60
2022-08-01T02:39:56.159Z,25.60
2022-08-01T02:40:08.423Z,25.60
2022-08-01T02:40:24.868Z,25.60
2022-08-01T02:40:37.132Z,25.60
2022-08-01T02:40:48.939Z,25.60
2022-08-01T02:41:03.574Z,25.60
2022-08-01T02:41:23.049Z,25.60
2022-08-01T02:41:40.934Z,25.60
2022-08-01T02:41:54.962Z,25.60
2022-08-01T02:42:07.854Z,25.60
2022-08-01T02:42:19.956Z,25.60
2022-08-01T02:42:31.650Z,25.60
2022-08-01T02:42:45.133Z,25.60
2022-08-01T02:42:56.960Z,25.60
2022-08-01T02:43:08.843Z,25.60
2022-08-01T02:43:22.499Z,25.50
2022-08-01T02:43:34.197Z,25.60
2022-08-01T02:43:53.262Z,25.60
2022-08-01T02:44:06.416Z,25.60
2022-08-01T02:44:24.825Z,25.60
2022-08-01T02:44:39.208Z,25.60
2022-08-01T02:44:50.949Z,25.60
2022-08-01T02:45:03.652Z,25.50
2022-08-01T02:45:15.364Z,25.50
2022-08-01T02:45:27.367Z,25.60
2022-08-01T02:45:43.764Z,25.50
2022-08-01T02:45:57.805Z,25.60
2022-08-01T02:46:09.657Z,25.60
2022-08-01T02:46:40.038Z,25.50
2022-08-01T02:46:57.398Z,25.50
2022-08-01T02:47:11.207Z,25.50
2022-08-01T02:47:23.237Z,25.50
2022-08-01T02:47:34.912Z,25.50
2022-08-01T02:47:46.763Z,25.50
2022-08-01T02:48:05.176Z,25.50
2022-08-01T02:48:17.141Z,25.50
2022-08-01T02:48:29.066Z,25.50
2022-08-01T02:48:43.344Z,25.50
2022-08-01T02:48:55.150Z,25.50
2022-08-01T02:49:08.739Z,25.50
2022-08-01T02:49:20.827Z,25.50
2022-08-01T02:49:40.435Z,25.50
2022-08-01T02:49:53.944Z,25.50
2022-08-01T02:50:06.273Z,25.50
2022-08-01T02:50:18.099Z,25.50
2022-08-01T02:50:29.827Z,25.40
2022-08-01T02:50:48.753Z,25.50
2022-08-01T02:51:01.188Z,25.50
2022-08-01T02:51:12.889Z,25.50
2022-08-01T02:51:24.623Z,25.40
2022-08-01T02:51:36.985Z,25.40
2022-08-01T02:51:48.763Z,25.40
2022-08-01T02:52:02.422Z,25.40
2022-08-01T02:52:16.460Z,25.40
2022-08-01T02:52:28.211Z,25.40
2022-08-01T02:52:40.552Z,25.40
2022-08-01T02:52:52.266Z,25.40
2022-08-01T02:53:04.022Z,25.40
2022-08-01T02:53:15.875Z,25.40
2022-08-01T02:53:44.047Z,25.40
2022-08-01T02:53:56.641Z,25.40
2022-08-01T02:54:09.123Z,25.40
2022-08-01T02:54:20.881Z,25.40
2022-08-01T02:54:32.561Z,25.40
2022-08-01T02:54:49.503Z,25.40
2022-08-01T02:55:01.224Z,25.40
2022-08-01T02:55:12.950Z,25.40
2022-08-01T02:55:24.787Z,25.40
2022-08-01T02:55:36.566Z,25.40
2022-08-01T02:55:48.390Z,25.40
2022-08-01T02:56:00.138Z,25.40
2022-08-01T02:56:12.340Z,25.40
2022-08-01T02:56:24.078Z,25.40
2022-08-01T02:56:36.019Z,25.40
2022-08-01T02:56:47.862Z,25.40
2022-08-01T02:56:59.560Z,25.40
2022-08-01T02:57:13.927Z,25.40
2022-08-01T02:57:33.566Z,25.40
2022-08-01T02:58:00.867Z,25.40
2022-08-01T02:58:12.885Z,25.40
2022-08-01T02:58:29.361Z,25.40
2022-08-01T02:58:42.070Z,25.40
2022-08-01T02:58:53.753Z,25.40
2022-08-01T02:59:14.519Z,25.40
2022-08-01T02:59:26.800Z,25.40
2022-08-01T02:59:38.996Z,25.40
2022-08-01T02:59:53.099Z,25.40
2022-08-01T03:00:08.243Z,25.40
2022-08-01T03:00:20.138Z,25.40
2022-08-01T03:00:31.885Z,25.40
2022-08-01T03:00:44.232Z,25.40
2022-08-01T03:01:00.339Z,25.40
2022-08-01T03:01:12.175Z,25.40
2022-08-01T03:01:23.967Z,25.40
2022-08-01T03:01:38.981Z,25.40
2022-08-01T03:01:55.351Z,25.40
2022-08-01T03:02:07.903Z,25.40
2022-08-01T03:02:21.355Z,25.40
2022-08-01T03:02:33.461Z,25.40
2022-08-01T03:02:45.333Z,25.40
2022-08-01T03:02:57.056Z,25.40
2022-08-01T03:03:08.808Z,25.40
2022-08-01T03:03:20.617Z,25.40
2022-08-01T03:03:32.354Z,25.40
2022-08-01T03:03:44.147Z,25.40
2022-08-01T03:03:55.836Z,25.50
2022-08-01T03:04:07.533Z,25.40
2022-08-01T03:04:19.241Z,25.40
2022-08-01T03:04:31.063Z,25.40
2022-08-01T03:04:42.888Z,25.50
2022-08-01T03:04:57.133Z,25.40
2022-08-01T03:05:09.514Z,25.40
2022-08-01T03:05:21.241Z,25.40
2022-08-01T03:05:33.040Z,25.40
2022-08-01T03:05:45.083Z,25.40
2022-08-01T03:05:56.777Z,25.40